Time;durP1;ratioP1;P1;durP2;ratioP2;P2;SDS_P1;SDS_P2;PMS_P1;PMS_P2;Temp;Humidity;BMP_temperature;BMP_pressure;BME280_temperature;BME280_humidity;BME280_pressure;Samples;Min_cycle;Max_cycle;Signal;HPM_P1;HPM_P2
2023/03/16 00:02:23;;;;;;;2.88;1.70;;;;;;;;;;5094536;28;20378;-77
2023/03/16 00:04:48;;;;;;;2.53;1.73;;;;;;;;;;5076883;28;20031;-78
2023/03/16 00:07:14;;;;;;;4.53;1.90;;;;;;;;;;5094144;28;20024;-75
2023/03/16 00:09:40;;;;;;;2.25;1.60;;;;;;;;;;5076270;28;20024;-75
2023/03/16 00:12:14;;;;;;;2.85;1.70;;;;;;;;;;5093408;28;20050;-75
2023/03/16 00:14:43;;;;;;;1.40;1.30;;;;;;;;;;5092946;28;20107;-77
2023/03/16 00:17:17;;;;;;;2.35;1.67;;;;;;;;;;5094259;28;20035;-77
2023/03/16 00:19:45;;;;;;;2.38;1.58;;;;;;;;;;5076948;28;20506;-77
2023/03/16 00:22:13;;;;;;;3.03;1.50;;;;;;;;;;5093920;28;20494;-77
2023/03/16 00:24:41;;;;;;;2.28;1.52;;;;;;;;;;5093870;28;20031;-76
2023/03/16 00:27:08;;;;;;;2.22;1.73;;;;;;;;;;5059269;28;20475;-76
2023/03/16 00:29:33;;;;;;;3.13;1.38;;;;;;;;;;5094079;28;20032;-76
2023/03/16 00:31:59;;;;;;;1.83;1.60;;;;;;;;;;5093754;28;20051;-77
2023/03/16 00:34:24;;;;;;;1.40;1.27;;;;;;;;;;5094142;28;20035;-77
2023/03/16 00:36:49;;;;;;;2.28;1.40;;;;;;;;;;5093918;28;20027;-76
2023/03/16 00:39:15;;;;;;;2.08;1.27;;;;;;;;;;5058654;28;20035;-77
2023/03/16 00:41:41;;;;;;;1.58;1.30;;;;;;;;;;5093484;28;20035;-77
2023/03/16 00:44:08;;;;;;;2.03;1.30;;;;;;;;;;5093541;28;20028;-77
2023/03/16 00:46:34;;;;;;;2.92;1.48;;;;;;;;;;5093713;28;20020;-77
2023/03/16 00:49:01;;;;;;;1.48;1.30;;;;;;;;;;5075265;28;20504;-76
2023/03/16 00:51:26;;;;;;;2.28;1.50;;;;;;;;;;5075470;28;20513;-76
2023/03/16 00:53:52;;;;;;;1.80;1.40;;;;;;;;;;5058289;28;20032;-76
2023/03/16 00:56:17;;;;;;;1.45;1.33;;;;;;;;;;5075378;28;20100;-77
2023/03/16 00:58:43;;;;;;;1.80;1.60;;;;;;;;;;5075013;28;20036;-77
2023/03/16 01:01:14;;;;;;;2.33;1.40;;;;;;;;;;5075070;28;20039;-77
2023/03/16 01:03:39;;;;;;;2.42;1.35;;;;;;;;;;5075161;28;20532;-77
2023/03/16 01:06:09;;;;;;;6.03;1.55;;;;;;;;;;5093507;28;20032;-76
2023/03/16 01:08:35;;;;;;;2.67;1.20;;;;;;;;;;5074984;28;20419;-76
2023/03/16 01:11:12;;;;;;;2.55;1.65;;;;;;;;;;5075063;28;20060;-76
2023/03/16 01:13:38;;;;;;;2.05;1.33;;;;;;;;;;5074626;28;20028;-76
2023/03/16 01:16:04;;;;;;;3.03;1.50;;;;;;;;;;5074871;28;20176;-76
2023/03/16 01:18:33;;;;;;;3.13;1.70;;;;;;;;;;5057939;28;20412;-76
2023/03/16 01:21:02;;;;;;;2.17;1.50;;;;;;;;;;5075033;28;20092;-76
2023/03/16 01:23:29;;;;;;;1.65;1.30;;;;;;;;;;5093106;28;20478;-76
2023/03/16 01:25:54;;;;;;;3.58;1.30;;;;;;;;;;5092837;28;20518;-76
2023/03/16 01:28:23;;;;;;;2.88;1.25;;;;;;;;;;5075124;28;20036;-76
2023/03/16 01:30:53;;;;;;;1.48;1.27;;;;;;;;;;5074979;28;20091;-76
2023/03/16 01:33:23;;;;;;;1.63;1.20;;;;;;;;;;5074832;28;20035;-76
2023/03/16 01:36:01;;;;;;;2.40;1.58;;;;;;;;;;5074903;28;20541;-76
2023/03/16 01:38:26;;;;;;;1.48;1.38;;;;;;;;;;5074770;28;20028;-76
2023/03/16 01:40:53;;;;;;;2.50;1.50;;;;;;;;;;5057545;28;20036;-76
2023/03/16 01:43:20;;;;;;;2.53;1.70;;;;;;;;;;5074523;28;20042;-76
2023/03/16 01:46:04;;;;;;;2.10;1.45;;;;;;;;;;5074356;28;20024;-76
2023/03/16 01:48:36;;;;;;;2.15;1.58;;;;;;;;;;5092811;28;20028;-76
2023/03/16 01:51:04;;;;;;;1.38;1.23;;;;;;;;;;5092315;28;20056;-76
2023/03/16 01:53:32;;;;;;;1.70;1.35;;;;;;;;;;5074676;28;20047;-76
2023/03/16 01:56:00;;;;;;;2.13;1.50;;;;;;;;;;5092469;28;20028;-77
2023/03/16 01:58:26;;;;;;;1.80;1.40;;;;;;;;;;5074655;28;20028;-76
2023/03/16 02:00:52;;;;;;;1.50;1.30;;;;;;;;;;5057685;28;20054;-76
2023/03/16 02:03:18;;;;;;;8.05;1.50;;;;;;;;;;5074174;28;20040;-76
2023/03/16 02:05:58;;;;;;;1.65;1.38;;;;;;;;;;5057410;28;20072;-76
2023/03/16 02:08:24;;;;;;;2.22;1.42;;;;;;;;;;5074502;28;20031;-76
2023/03/16 02:10:53;;;;;;;3.20;1.60;;;;;;;;;;5092412;28;20020;-76
2023/03/16 02:13:20;;;;;;;1.65;1.38;;;;;;;;;;5074203;28;20032;-77
2023/03/16 02:15:45;;;;;;;2.78;1.30;;;;;;;;;;5057681;28;20107;-77
2023/03/16 02:18:10;;;;;;;1.55;1.20;;;;;;;;;;5092596;28;20492;-76
2023/03/16 02:20:56;;;;;;;2.08;1.50;;;;;;;;;;5061713;28;20486;-76
2023/03/16 02:23:23;;;;;;;2.28;1.48;;;;;;;;;;5078284;28;20020;-76
2023/03/16 02:26:09;;;;;;;1.60;1.50;;;;;;;;;;5078133;28;20084;-76
2023/03/16 02:28:47;;;;;;;3.60;1.40;;;;;;;;;;5078121;28;20031;-76
2023/03/16 02:31:13;;;;;;;1.98;1.48;;;;;;;;;;5078366;28;20012;-76
2023/03/16 02:33:39;;;;;;;2.60;1.52;;;;;;;;;;5077754;28;20028;-77
2023/03/16 02:36:05;;;;;;;2.35;1.40;;;;;;;;;;5077890;28;20028;-76
2023/03/16 02:38:31;;;;;;;1.75;1.48;;;;;;;;;;5077810;28;20040;-76
2023/03/16 02:41:17;;;;;;;2.10;1.45;;;;;;;;;;5095814;28;20088;-76
2023/03/16 02:43:57;;;;;;;1.35;1.25;;;;;;;;;;5095779;28;20035;-76
2023/03/16 02:46:24;;;;;;;2.50;1.52;;;;;;;;;;5095569;28;20112;-76
2023/03/16 02:48:57;;;;;;;1.83;1.50;;;;;;;;;;5094450;28;20027;-76
2023/03/16 02:51:22;;;;;;;2.30;1.33;;;;;;;;;;5060542;28;20517;-76
2023/03/16 02:53:48;;;;;;;1.40;1.15;;;;;;;;;;5095862;28;20064;-76
2023/03/16 02:56:13;;;;;;;2.97;1.40;;;;;;;;;;5077378;28;20024;-76
2023/03/16 02:58:38;;;;;;;1.30;1.20;;;;;;;;;;5060657;28;20036;-76
2023/03/16 03:01:04;;;;;;;2.72;1.40;;;;;;;;;;5095523;28;20028;-76
2023/03/16 03:03:33;;;;;;;1.17;1.13;;;;;;;;;;5077343;28;20040;-76
2023/03/16 03:05:58;;;;;;;2.55;1.25;;;;;;;;;;5095625;28;20060;-76
2023/03/16 03:08:23;;;;;;;1.98;1.38;;;;;;;;;;5078044;28;20078;-76
2023/03/16 03:10:49;;;;;;;2.22;1.45;;;;;;;;;;5077100;28;20024;-77
2023/03/16 03:13:14;;;;;;;2.60;1.40;;;;;;;;;;5077132;28;20508;-76
2023/03/16 03:15:40;;;;;;;1.80;1.40;;;;;;;;;;5077346;28;20514;-75
2023/03/16 03:18:05;;;;;;;3.15;1.35;;;;;;;;;;5095146;28;20036;-76
2023/03/16 03:20:31;;;;;;;1.95;1.40;;;;;;;;;;5095307;28;20067;-76
2023/03/16 03:22:57;;;;;;;1.67;1.40;;;;;;;;;;5095068;28;20466;-76
2023/03/16 03:25:22;;;;;;;1.90;1.58;;;;;;;;;;5077034;28;20109;-76
2023/03/16 03:27:49;;;;;;;3.42;1.50;;;;;;;;;;5076954;28;20134;-76
2023/03/16 03:30:17;;;;;;;2.00;1.40;;;;;;;;;;5094426;28;20030;-76
2023/03/16 03:32:43;;;;;;;2.35;1.60;;;;;;;;;;5076859;28;20027;-76
2023/03/16 03:35:11;;;;;;;2.05;1.50;;;;;;;;;;5095142;28;20053;-76
2023/03/16 03:37:37;;;;;;;2.45;1.50;;;;;;;;;;5095092;28;20048;-76
2023/03/16 03:40:10;;;;;;;2.85;1.75;;;;;;;;;;5076377;28;20028;-76
2023/03/16 03:42:36;;;;;;;1.50;1.40;;;;;;;;;;5094337;28;20028;-76
2023/03/16 03:45:01;;;;;;;1.42;1.20;;;;;;;;;;5076547;28;20052;-76
2023/03/16 03:47:27;;;;;;;1.52;1.30;;;;;;;;;;5076451;28;20041;-76
2023/03/16 03:49:52;;;;;;;1.80;1.40;;;;;;;;;;5076557;28;20470;-76
2023/03/16 03:52:17;;;;;;;2.40;1.45;;;;;;;;;;5060753;28;20058;-77
2023/03/16 03:54:43;;;;;;;1.38;1.27;;;;;;;;;;5056116;28;20036;-77
2023/03/16 03:57:08;;;;;;;2.90;1.33;;;;;;;;;;5074180;28;20115;-76
2023/03/16 03:59:39;;;;;;;1.90;1.40;;;;;;;;;;5054705;28;20749;-78
2023/03/16 04:02:05;;;;;;;1.75;1.40;;;;;;;;;;5056051;28;20056;-76
2023/03/16 04:04:30;;;;;;;1.85;1.13;;;;;;;;;;5057190;28;20071;-77
2023/03/16 04:06:55;;;;;;;2.05;1.40;;;;;;;;;;5068939;28;20028;-76
2023/03/16 04:09:21;;;;;;;1.55;1.40;;;;;;;;;;5073402;28;20024;-76
2023/03/16 04:11:46;;;;;;;3.17;1.50;;;;;;;;;;5078529;28;20528;-76
2023/03/16 04:14:11;;;;;;;1.63;1.30;;;;;;;;;;5073455;28;20036;-76
2023/03/16 04:16:37;;;;;;;1.30;1.20;;;;;;;;;;5074236;28;20052;-75
2023/03/16 04:19:03;;;;;;;1.85;1.30;;;;;;;;;;5072399;28;20021;-75
2023/03/16 04:21:28;;;;;;;4.07;1.55;;;;;;;;;;5073945;28;20029;-76
2023/03/16 04:23:53;;;;;;;1.40;1.30;;;;;;;;;;5073693;28;20037;-76
2023/03/16 04:26:20;;;;;;;3.30;1.35;;;;;;;;;;5072829;28;20039;-76
2023/03/16 04:28:46;;;;;;;2.65;1.70;;;;;;;;;;5055563;28;20090;-76
2023/03/16 04:31:12;;;;;;;1.48;1.20;;;;;;;;;;5072291;28;20048;-76
2023/03/16 04:33:38;;;;;;;2.70;1.10;;;;;;;;;;5073837;28;20043;-76
2023/03/16 04:36:05;;;;;;;1.52;1.20;;;;;;;;;;5055737;28;20043;-76
2023/03/16 04:38:35;;;;;;;7.90;1.40;;;;;;;;;;5072100;28;20049;-75
2023/03/16 04:41:01;;;;;;;2.40;1.40;;;;;;;;;;5071994;28;20415;-76
2023/03/16 04:43:27;;;;;;;1.95;1.25;;;;;;;;;;5071129;28;20033;-76
2023/03/16 04:45:53;;;;;;;5.30;1.30;;;;;;;;;;5072246;28;20448;-76
2023/03/16 04:48:18;;;;;;;1.58;1.40;;;;;;;;;;5073433;28;20036;-76
2023/03/16 04:50:44;;;;;;;2.22;1.40;;;;;;;;;;5073185;28;20442;-75
2023/03/16 04:53:09;;;;;;;2.17;1.20;;;;;;;;;;5071414;28;20029;-75
2023/03/16 04:55:35;;;;;;;5.03;1.55;;;;;;;;;;5093296;28;20038;-75
2023/03/16 04:58:00;;;;;;;1.92;1.20;;;;;;;;;;5093562;28;20036;-76
2023/03/16 05:00:26;;;;;;;4.30;1.30;;;;;;;;;;5075272;28;20096;-75
2023/03/16 05:02:51;;;;;;;2.03;1.45;;;;;;;;;;5093198;28;20116;-76
2023/03/16 05:05:17;;;;;;;1.98;1.40;;;;;;;;;;5094400;28;20066;-76
2023/03/16 05:07:43;;;;;;;3.95;1.65;;;;;;;;;;5092814;28;20067;-75
2023/03/16 05:10:15;;;;;;;26.15;1.98;;;;;;;;;;5075763;28;20016;-77
2023/03/16 05:12:40;;;;;;;5.60;2.63;;;;;;;;;;5075964;28;20034;-76
2023/03/16 05:15:07;;;;;;;3.22;1.50;;;;;;;;;;5075738;28;20107;-75
2023/03/16 05:17:32;;;;;;;2.20;1.55;;;;;;;;;;5092641;28;20052;-75
2023/03/16 05:19:57;;;;;;;3.45;1.73;;;;;;;;;;5075739;28;20051;-76
2023/03/16 05:22:23;;;;;;;6.50;1.90;;;;;;;;;;5093860;28;20035;-75
2023/03/16 05:24:48;;;;;;;2.25;1.60;;;;;;;;;;5094251;28;20093;-76
2023/03/16 05:27:14;;;;;;;3.13;1.70;;;;;;;;;;5093657;28;20028;-78
2023/03/16 05:29:44;;;;;;;4.95;1.70;;;;;;;;;;5075895;28;20028;-77
2023/03/16 05:32:10;;;;;;;11.27;2.00;;;;;;;;;;5093666;28;20020;-77
2023/03/16 05:34:36;;;;;;;3.92;1.60;;;;;;;;;;5092752;28;20106;-77
2023/03/16 05:37:01;;;;;;;5.38;1.77;;;;;;;;;;5093505;28;20036;-76
2023/03/16 05:39:27;;;;;;;4.22;1.98;;;;;;;;;;5075308;28;20024;-78
2023/03/16 05:41:53;;;;;;;4.70;2.20;;;;;;;;;;5093405;28;20056;-77
2023/03/16 05:44:19;;;;;;;3.45;1.77;;;;;;;;;;5093468;28;20028;-78
2023/03/16 05:46:44;;;;;;;4.43;2.08;;;;;;;;;;5075623;28;20028;-77
2023/03/16 05:49:11;;;;;;;13.77;2.22;;;;;;;;;;5075268;28;20529;-77
2023/03/16 05:51:37;;;;;;;7.80;2.38;;;;;;;;;;5092072;28;20063;-77
2023/03/16 05:54:03;;;;;;;3.85;2.00;;;;;;;;;;5091558;28;20039;-79
2023/03/16 05:56:29;;;;;;;6.72;2.08;;;;;;;;;;5075361;28;20040;-81
2023/03/16 05:58:55;;;;;;;6.05;2.03;;;;;;;;;;5092915;28;20032;-80
2023/03/16 06:01:21;;;;;;;4.55;1.65;;;;;;;;;;5092996;28;20038;-80
2023/03/16 06:03:47;;;;;;;5.40;2.10;;;;;;;;;;5091887;28;20067;-80
2023/03/16 06:06:15;;;;;;;6.63;2.05;;;;;;;;;;5092236;28;20111;-79
2023/03/16 06:08:40;;;;;;;10.07;2.25;;;;;;;;;;5092049;28;20063;-80
2023/03/16 06:11:05;;;;;;;8.40;2.60;;;;;;;;;;5093403;28;20052;-80
2023/03/16 06:13:31;;;;;;;12.90;2.95;;;;;;;;;;5075305;28;20028;-80
2023/03/16 06:15:56;;;;;;;12.00;2.60;;;;;;;;;;5093677;28;20043;-81
2023/03/16 06:18:21;;;;;;;6.95;2.22;;;;;;;;;;5093099;28;20034;-80
2023/03/16 06:20:47;;;;;;;5.43;2.38;;;;;;;;;;5093387;28;20471;-80
2023/03/16 06:23:12;;;;;;;9.60;2.40;;;;;;;;;;5058233;28;20089;-80
2023/03/16 06:25:38;;;;;;;7.07;2.30;;;;;;;;;;5074869;28;20085;-80
2023/03/16 06:28:04;;;;;;;6.82;2.55;;;;;;;;;;5092033;28;20020;-80
2023/03/16 06:30:30;;;;;;;4.70;2.10;;;;;;;;;;5091795;28;20021;-80
2023/03/16 06:32:55;;;;;;;6.63;2.30;;;;;;;;;;5074853;28;20038;-81
2023/03/16 06:35:21;;;;;;;8.00;2.10;;;;;;;;;;5093729;28;20370;-81
2023/03/16 06:37:46;;;;;;;7.53;2.13;;;;;;;;;;5058090;28;20028;-80
2023/03/16 06:40:12;;;;;;;5.97;2.08;;;;;;;;;;5092921;28;20024;-81
2023/03/16 06:42:38;;;;;;;5.90;1.90;;;;;;;;;;5091733;28;20044;-81
2023/03/16 06:45:03;;;;;;;9.73;1.77;;;;;;;;;;5092887;28;20107;-82
2023/03/16 06:47:29;;;;;;;2.92;1.85;;;;;;;;;;5091928;28;20028;-80
2023/03/16 06:49:54;;;;;;;2.58;1.73;;;;;;;;;;5074627;28;20481;-80
2023/03/16 06:52:20;;;;;;;3.40;1.70;;;;;;;;;;5074467;28;20059;-81
2023/03/16 06:54:45;;;;;;;3.30;1.58;;;;;;;;;;5092796;28;20052;-81
2023/03/16 06:57:11;;;;;;;3.30;1.80;;;;;;;;;;5091653;28;20059;-81
2023/03/16 06:59:36;;;;;;;2.70;1.75;;;;;;;;;;5092648;28;20436;-80
2023/03/16 07:02:02;;;;;;;1.75;1.40;;;;;;;;;;5092952;28;20031;-80
2023/03/16 07:04:27;;;;;;;4.47;1.52;;;;;;;;;;5074623;28;20486;-80
2023/03/16 07:06:53;;;;;;;3.60;1.63;;;;;;;;;;5095621;28;20077;-80
2023/03/16 07:09:18;;;;;;;2.35;1.70;;;;;;;;;;5094994;28;20410;-81
2023/03/16 07:11:43;;;;;;;2.78;1.60;;;;;;;;;;5061258;28;20032;-80
2023/03/16 07:14:09;;;;;;;3.53;1.70;;;;;;;;;;5095958;28;20093;-80
2023/03/16 07:16:35;;;;;;;1.75;1.40;;;;;;;;;;5096512;28;20497;-80
2023/03/16 07:19:00;;;;;;;2.53;1.52;;;;;;;;;;5096306;28;20043;-81
2023/03/16 07:21:26;;;;;;;2.45;1.50;;;;;;;;;;5060916;28;20033;-80
2023/03/16 07:23:51;;;;;;;2.13;1.30;;;;;;;;;;5095904;28;20102;-80
2023/03/16 07:26:16;;;;;;;2.25;1.70;;;;;;;;;;5077905;28;20034;-80
2023/03/16 07:28:42;;;;;;;1.83;1.40;;;;;;;;;;5077892;28;20024;-81
2023/03/16 07:31:08;;;;;;;2.22;1.33;;;;;;;;;;5095727;28;20028;-81
2023/03/16 07:33:34;;;;;;;3.25;1.50;;;;;;;;;;5095839;28;20081;-81
2023/03/16 07:36:03;;;;;;;2.38;1.50;;;;;;;;;;5095880;28;20478;-81
2023/03/16 07:38:28;;;;;;;4.60;1.30;;;;;;;;;;5061170;28;20055;-82
2023/03/16 07:40:54;;;;;;;3.28;1.50;;;;;;;;;;5094301;28;20055;-81
2023/03/16 07:43:19;;;;;;;2.55;1.60;;;;;;;;;;5095454;28;20428;-80
2023/03/16 07:45:49;;;;;;;2.22;1.30;;;;;;;;;;5094261;28;20032;-81
2023/03/16 07:48:14;;;;;;;2.22;1.30;;;;;;;;;;5077686;28;20042;-81
2023/03/16 07:50:40;;;;;;;3.05;1.38;;;;;;;;;;5077187;28;20027;-81
2023/03/16 07:53:06;;;;;;;1.90;1.40;;;;;;;;;;5077275;28;20031;-80
2023/03/16 07:55:31;;;;;;;1.90;1.20;;;;;;;;;;5077358;28;20024;-81
2023/03/16 07:57:56;;;;;;;3.42;1.48;;;;;;;;;;5096641;28;20441;-81
2023/03/16 08:00:23;;;;;;;1.38;1.20;;;;;;;;;;5095039;28;20034;-81
2023/03/16 08:02:50;;;;;;;2.00;1.17;;;;;;;;;;5076911;28;20540;-81
2023/03/16 08:05:16;;;;;;;2.10;1.42;;;;;;;;;;5094234;28;20057;-81
2023/03/16 08:07:41;;;;;;;3.10;1.27;;;;;;;;;;5076713;28;20043;-82
2023/03/16 08:10:07;;;;;;;2.45;1.33;;;;;;;;;;5060150;28;20032;-82
2023/03/16 08:12:33;;;;;;;1.75;1.20;;;;;;;;;;5094838;28;20028;-81
2023/03/16 08:14:58;;;;;;;2.30;1.30;;;;;;;;;;5095080;28;20039;-81
2023/03/16 08:17:23;;;;;;;1.65;1.10;;;;;;;;;;5076444;28;20034;-81
2023/03/16 08:19:49;;;;;;;2.45;1.50;;;;;;;;;;5094760;28;20037;-81
2023/03/16 08:22:14;;;;;;;3.03;1.40;;;;;;;;;;5094865;28;20028;-81
2023/03/16 08:24:41;;;;;;;1.60;1.30;;;;;;;;;;5094751;28;20032;-81
2023/03/16 08:27:06;;;;;;;2.45;1.30;;;;;;;;;;5076656;28;20028;-81
2023/03/16 08:29:33;;;;;;;1.20;1.08;;;;;;;;;;5094527;28;20043;-82
2023/03/16 08:31:59;;;;;;;1.70;1.30;;;;;;;;;;5093395;28;20028;-81
2023/03/16 08:34:25;;;;;;;2.15;1.10;;;;;;;;;;5076437;28;20356;-81
2023/03/16 08:36:51;;;;;;;1.73;0.95;;;;;;;;;;5094903;28;20491;-81
2023/03/16 08:39:16;;;;;;;2.22;1.27;;;;;;;;;;5094653;28;20028;-81
2023/03/16 08:41:42;;;;;;;3.80;1.35;;;;;;;;;;5076075;28;20501;-81
2023/03/16 08:44:09;;;;;;;1.75;1.30;;;;;;;;;;5093149;28;20028;-81
2023/03/16 08:46:34;;;;;;;1.30;1.20;;;;;;;;;;5094374;28;20032;-80
2023/03/16 08:49:01;;;;;;;2.10;1.30;;;;;;;;;;5094555;28;20073;-80
2023/03/16 08:51:28;;;;;;;1.60;1.20;;;;;;;;;;5075802;28;20044;-80
2023/03/16 08:53:53;;;;;;;2.83;1.20;;;;;;;;;;5076363;28;20028;-80
2023/03/16 08:56:19;;;;;;;1.50;1.05;;;;;;;;;;5094316;28;20031;-80
2023/03/16 08:58:44;;;;;;;2.38;1.30;;;;;;;;;;5094285;28;20111;-80
2023/03/16 09:01:14;;;;;;;1.23;1.00;;;;;;;;;;5093851;28;20065;-80
2023/03/16 09:03:41;;;;;;;1.80;1.13;;;;;;;;;;5094051;28;20088;-80
2023/03/16 09:06:11;;;;;;;1.23;1.02;;;;;;;;;;5093084;28;20024;-81
2023/03/16 09:08:38;;;;;;;1.98;1.27;;;;;;;;;;5092889;28;20035;-81
2023/03/16 09:11:14;;;;;;;1.67;1.10;;;;;;;;;;5093851;28;20024;-79
2023/03/16 09:13:41;;;;;;;2.45;1.27;;;;;;;;;;5075692;28;20032;-80
2023/03/16 09:16:08;;;;;;;1.65;1.10;;;;;;;;;;5095282;28;20467;-80
2023/03/16 09:18:34;;;;;;;2.15;1.13;;;;;;;;;;5092585;28;20386;-80
2023/03/16 09:21:01;;;;;;;1.35;1.02;;;;;;;;;;5094480;28;20056;-80
2023/03/16 09:23:28;;;;;;;2.88;1.30;;;;;;;;;;5092584;28;20030;-80
2023/03/16 09:25:58;;;;;;;1.48;1.15;;;;;;;;;;5094041;28;20087;-80
2023/03/16 09:28:26;;;;;;;3.25;1.23;;;;;;;;;;5092054;28;20430;-80
2023/03/16 09:30:51;;;;;;;1.38;1.10;;;;;;;;;;5093672;28;20027;-80
2023/03/16 09:33:17;;;;;;;2.13;1.30;;;;;;;;;;5058686;28;20420;-80
2023/03/16 09:35:46;;;;;;;2.63;1.50;;;;;;;;;;5093734;28;20032;-80
2023/03/16 09:38:11;;;;;;;1.63;1.13;;;;;;;;;;5075738;28;20058;-80
2023/03/16 09:40:37;;;;;;;2.08;1.23;;;;;;;;;;5092437;28;20428;-80
2023/03/16 09:43:17;;;;;;;1.88;1.20;;;;;;;;;;5075423;28;20074;-82
2023/03/16 09:45:56;;;;;;;2.30;1.20;;;;;;;;;;5093607;28;20424;-82
2023/03/16 09:48:23;;;;;;;1.45;1.30;;;;;;;;;;5058623;28;20455;-81
2023/03/16 09:50:49;;;;;;;1.85;1.20;;;;;;;;;;5074880;28;20193;-81
2023/03/16 09:53:24;;;;;;;1.92;1.27;;;;;;;;;;5075081;28;20183;-81
2023/03/16 09:55:54;;;;;;;2.88;1.25;;;;;;;;;;5058294;28;20031;-81
2023/03/16 09:58:21;;;;;;;2.00;1.30;;;;;;;;;;5092405;28;20386;-82
2023/03/16 10:00:52;;;;;;;1.60;1.13;;;;;;;;;;5092136;28;20173;-80
2023/03/16 10:03:38;;;;;;;1.90;1.20;;;;;;;;;;5074939;28;20058;-81
2023/03/16 10:06:08;;;;;;;1.20;1.10;;;;;;;;;;5071568;28;20052;-81
2023/03/16 10:08:42;;;;;;;1.52;1.10;;;;;;;;;;5093086;28;20024;-81
2023/03/16 10:11:17;;;;;;;2.80;1.20;;;;;;;;;;5074922;28;20027;-80
2023/03/16 10:13:53;;;;;;;1.40;1.20;;;;;;;;;;5093210;28;20161;-81
2023/03/16 10:16:31;;;;;;;1.92;1.10;;;;;;;;;;5093588;28;20113;-81
2023/03/16 10:19:06;;;;;;;1.63;1.10;;;;;;;;;;5092964;28;20471;-81
2023/03/16 10:21:38;;;;;;;2.67;1.25;;;;;;;;;;5091703;28;20020;-82
2023/03/16 10:24:06;;;;;;;1.85;1.30;;;;;;;;;;5091946;28;20095;-81
2023/03/16 10:26:38;;;;;;;1.90;1.10;;;;;;;;;;5075033;28;20031;-80
2023/03/16 10:29:11;;;;;;;1.25;1.15;;;;;;;;;;5074726;28;20025;-81
2023/03/16 10:31:40;;;;;;;2.07;1.13;;;;;;;;;;5074834;28;20097;-81
2023/03/16 10:34:06;;;;;;;1.77;1.10;;;;;;;;;;5093167;28;20039;-81
2023/03/16 10:36:33;;;;;;;2.35;1.23;;;;;;;;;;5092024;28;20032;-81
2023/03/16 10:39:09;;;;;;;3.00;1.40;;;;;;;;;;5091641;28;20065;-81
2023/03/16 10:41:37;;;;;;;3.80;1.30;;;;;;;;;;5096901;28;20051;-81
2023/03/16 10:44:14;;;;;;;1.75;1.27;;;;;;;;;;5096002;28;20020;-81
2023/03/16 10:46:47;;;;;;;1.35;1.10;;;;;;;;;;5078403;28;20032;-81
2023/03/16 10:49:22;;;;;;;1.92;1.35;;;;;;;;;;5079293;28;20095;-81
2023/03/16 10:51:48;;;;;;;4.68;1.35;;;;;;;;;;5078005;28;20040;-81
2023/03/16 10:54:28;;;;;;;2.70;1.38;;;;;;;;;;5095491;28;20047;-81
2023/03/16 10:56:54;;;;;;;1.20;1.02;;;;;;;;;;5095201;28;20027;-81
2023/03/16 10:59:33;;;;;;;1.10;1.00;;;;;;;;;;5078238;28;20032;-81
2023/03/16 11:02:01;;;;;;;1.45;1.20;;;;;;;;;;5078323;28;20019;-81
2023/03/16 11:04:30;;;;;;;1.20;1.10;;;;;;;;;;5096665;28;20428;-81
2023/03/16 11:06:56;;;;;;;2.13;1.25;;;;;;;;;;5096356;28;20032;-81
2023/03/16 11:09:31;;;;;;;1.20;1.10;;;;;;;;;;5078081;28;20106;-81
2023/03/16 11:11:58;;;;;;;1.27;1.17;;;;;;;;;;5095218;28;20028;-81
2023/03/16 11:14:27;;;;;;;1.52;1.10;;;;;;;;;;5078078;28;20518;-81
2023/03/16 11:17:08;;;;;;;1.85;1.30;;;;;;;;;;5095183;28;20028;-81
2023/03/16 11:19:40;;;;;;;1.63;1.15;;;;;;;;;;5078139;28;20024;-81
2023/03/16 11:22:13;;;;;;;2.67;1.17;;;;;;;;;;5096038;28;20103;-81
2023/03/16 11:25:00;;;;;;;2.35;1.15;;;;;;;;;;5095936;28;20031;-81
2023/03/16 11:27:34;;;;;;;1.70;1.23;;;;;;;;;;5095878;28;20077;-82
2023/03/16 11:30:21;;;;;;;2.10;1.15;;;;;;;;;;5094668;28;20016;-80
2023/03/16 11:32:52;;;;;;;2.72;1.38;;;;;;;;;;5095831;28;20463;-80
2023/03/16 11:35:29;;;;;;;2.38;1.25;;;;;;;;;;5079227;28;20042;-80
2023/03/16 11:37:54;;;;;;;1.20;1.10;;;;;;;;;;5078494;28;20024;-81
2023/03/16 11:40:44;;;;;;;1.20;1.08;;;;;;;;;;5095681;28;20020;-80
2023/03/16 11:43:26;;;;;;;1.58;0.95;;;;;;;;;;5095518;28;20020;-79
2023/03/16 11:46:07;;;;;;;1.98;1.00;;;;;;;;;;5095026;28;20051;-80
2023/03/16 11:48:45;;;;;;;4.20;1.25;;;;;;;;;;5095534;28;20024;-83
2023/03/16 11:51:35;;;;;;;1.15;1.00;;;;;;;;;;5077581;28;20062;-81
2023/03/16 11:54:19;;;;;;;1.15;0.80;;;;;;;;;;5077513;28;20062;-81
2023/03/16 11:56:55;;;;;;;2.75;1.00;;;;;;;;;;5095460;28;20024;-80
2023/03/16 11:59:45;;;;;;;2.03;1.10;;;;;;;;;;5093971;28;20081;-80
2023/03/16 12:02:28;;;;;;;2.17;0.90;;;;;;;;;;5095132;28;20032;-80
2023/03/16 12:05:15;;;;;;;1.80;1.10;;;;;;;;;;5095817;28;20027;-79
2023/03/16 12:08:08;;;;;;;1.55;0.98;;;;;;;;;;5095031;28;20098;-79
2023/03/16 12:10:38;;;;;;;1.42;1.00;;;;;;;;;;5093933;28;20027;-79
2023/03/16 12:13:21;;;;;;;1.40;1.05;;;;;;;;;;5095176;28;20076;-79
2023/03/16 12:15:55;;;;;;;2.33;1.23;;;;;;;;;;5094850;28;20513;-79
2023/03/16 12:18:33;;;;;;;;;;;;;;;;;;5094077;28;20038;-79
2023/03/16 12:21:04;;;;;;;2.42;1.08;;;;;;;;;;5094730;28;19912;-79
2023/03/16 12:23:42;;;;;;;1.75;1.13;;;;;;;;;;5076662;28;20024;-78
2023/03/16 12:26:07;;;;;;;1.73;1.10;;;;;;;;;;5094626;28;20024;-79
2023/03/16 12:28:33;;;;;;;1.23;1.10;;;;;;;;;;5094610;28;20069;-79
2023/03/16 12:31:18;;;;;;;3.40;1.33;;;;;;;;;;5093748;28;20024;-79
2023/03/16 12:34:17;;;;;;;1.90;1.30;;;;;;;;;;5093497;28;20150;-79
2023/03/16 12:37:04;;;;;;;1.20;1.02;;;;;;;;;;5084029;28;20035;-79
2023/03/16 12:39:52;;;;;;;2.65;0.85;;;;;;;;;;5094381;28;20019;-79
2023/03/16 12:42:52;;;;;;;1.90;1.13;;;;;;;;;;5076298;28;20462;-79
2023/03/16 12:45:33;;;;;;;1.00;1.00;;;;;;;;;;5094622;28;20032;-79
2023/03/16 12:48:44;;;;;;;1.35;1.13;;;;;;;;;;5093326;28;20119;-79
2023/03/16 12:51:09;;;;;;;2.38;1.02;;;;;;;;;;5092019;28;20474;-79
2023/03/16 12:54:06;;;;;;;1.50;1.23;;;;;;;;;;5075737;28;20048;-79
2023/03/16 12:56:35;;;;;;;3.53;1.30;;;;;;;;;;5068027;28;20486;-79
2023/03/16 12:59:04;;;;;;;1.45;1.10;;;;;;;;;;5093090;28;20093;-79
2023/03/16 13:01:37;;;;;;;2.47;1.08;;;;;;;;;;5093072;28;20085;-79
2023/03/16 13:04:29;;;;;;;2.75;1.27;;;;;;;;;;5093162;28;20085;-79
2023/03/16 13:07:07;;;;;;;3.25;1.27;;;;;;;;;;5092725;28;20055;-79
2023/03/16 13:09:35;;;;;;;1.17;1.08;;;;;;;;;;5093535;28;20422;-79
2023/03/16 13:12:05;;;;;;;2.05;1.10;;;;;;;;;;5075661;28;20073;-79
2023/03/16 13:14:42;;;;;;;1.60;1.05;;;;;;;;;;5092712;28;20091;-79
2023/03/16 13:17:14;;;;;;;3.33;1.30;;;;;;;;;;5092632;28;20137;-79
2023/03/16 13:19:43;;;;;;;2.70;1.10;;;;;;;;;;5093689;28;20047;-80
2023/03/16 13:22:20;;;;;;;2.35;1.20;;;;;;;;;;5093557;28;20046;-79
2023/03/16 13:24:52;;;;;;;1.70;1.00;;;;;;;;;;5093712;28;20116;-79
2023/03/16 13:27:25;;;;;;;3.88;1.15;;;;;;;;;;5092601;28;20081;-79
2023/03/16 13:29:59;;;;;;;1.40;1.15;;;;;;;;;;5075429;28;20024;-80
2023/03/16 13:32:27;;;;;;;1.65;1.02;;;;;;;;;;5058706;28;20488;-79
2023/03/16 13:34:57;;;;;;;1.48;1.00;;;;;;;;;;5092396;28;20032;-78
2023/03/16 13:37:23;;;;;;;1.63;1.15;;;;;;;;;;5092835;28;20024;-79
2023/03/16 13:39:57;;;;;;;1.45;1.00;;;;;;;;;;5075704;28;20081;-79
2023/03/16 13:42:23;;;;;;;2.35;1.25;;;;;;;;;;5093316;28;20031;-79
2023/03/16 13:44:55;;;;;;;1.45;1.00;;;;;;;;;;5075622;28;20028;-79
2023/03/16 13:47:21;;;;;;;4.05;1.10;;;;;;;;;;5092121;28;20032;-79
2023/03/16 13:49:59;;;;;;;3.63;1.05;;;;;;;;;;5075590;28;20013;-79
2023/03/16 13:52:33;;;;;;;0.80;0.80;;;;;;;;;;5092112;28;20455;-79
2023/03/16 13:55:01;;;;;;;1.55;1.08;;;;;;;;;;5093285;28;20028;-79
2023/03/16 13:57:29;;;;;;;1.65;1.20;;;;;;;;;;5093709;28;20028;-79
2023/03/16 14:00:31;;;;;;;3.28;1.13;;;;;;;;;;5093084;28;20157;-79
2023/03/16 14:02:58;;;;;;;1.42;1.00;;;;;;;;;;5054641;28;20093;-79
2023/03/16 14:05:31;;;;;;;2.65;0.90;;;;;;;;;;5092653;28;20467;-78
2023/03/16 14:07:59;;;;;;;;;;;;;;;;;;5058942;28;20032;-79
2023/03/16 14:10:28;;;;;;;1.55;1.00;;;;;;;;;;5075481;28;19915;-79
2023/03/16 14:13:05;;;;;;;1.17;1.00;;;;;;;;;;5092176;28;20093;-79
2023/03/16 14:15:30;;;;;;;4.72;0.98;;;;;;;;;;5060712;28;20480;-79
2023/03/16 14:18:11;;;;;;;1.55;1.10;;;;;;;;;;5078852;28;20085;-79
2023/03/16 14:20:38;;;;;;;1.58;1.20;;;;;;;;;;5095847;28;20022;-79
2023/03/16 14:23:04;;;;;;;1.48;1.08;;;;;;;;;;5096506;28;20477;-79
2023/03/16 14:25:30;;;;;;;2.17;1.27;;;;;;;;;;5097268;28;20044;-79
2023/03/16 14:28:00;;;;;;;1.55;1.10;;;;;;;;;;5062589;28;20036;-79
2023/03/16 14:30:28;;;;;;;1.48;1.10;;;;;;;;;;5078816;28;20061;-79
2023/03/16 14:33:23;;;;;;;1.05;0.93;;;;;;;;;;5095729;28;20034;-79
2023/03/16 14:35:53;;;;;;;1.20;1.08;;;;;;;;;;5096767;28;20032;-79
2023/03/16 14:38:31;;;;;;;1.55;1.10;;;;;;;;;;5095974;28;20059;-79
2023/03/16 14:41:03;;;;;;;1.45;1.00;;;;;;;;;;5095878;28;20028;-79
2023/03/16 14:43:34;;;;;;;2.10;1.20;;;;;;;;;;5078853;28;20482;-79
2023/03/16 14:46:00;;;;;;;1.15;1.02;;;;;;;;;;5095813;28;20032;-79
2023/03/16 14:48:27;;;;;;;1.23;0.88;;;;;;;;;;5078495;28;20058;-79
2023/03/16 14:50:54;;;;;;;1.20;1.10;;;;;;;;;;5095459;28;20096;-78
2023/03/16 14:53:20;;;;;;;2.85;1.08;;;;;;;;;;5095304;28;20059;-80
2023/03/16 14:55:46;;;;;;;0.90;0.90;;;;;;;;;;5103349;28;20043;-81
2023/03/16 14:58:12;;;;;;;2.58;0.80;;;;;;;;;;5099458;28;20047;-79